createdAt,value
2023-03-21T00:01:34.754Z,31.75
2023-03-21T00:04:01.334Z,30.75
2023-03-21T00:06:27.888Z,30.23
2023-03-21T00:08:54.398Z,30.25
2023-03-21T00:11:22.022Z,32.65
2023-03-21T00:13:48.940Z,32.03
2023-03-21T00:16:24.914Z,30.25
2023-03-21T00:18:57.624Z,31.38
2023-03-21T00:21:59.639Z,31.20
2023-03-21T00:24:32.544Z,30.45
2023-03-21T00:27:15.848Z,29.63
2023-03-21T00:29:43.059Z,30.25
2023-03-21T00:32:10.062Z,30.13
2023-03-21T00:34:43.614Z,30.98
2023-03-21T00:37:21.728Z,32.05
2023-03-21T00:39:51.154Z,31.48
2023-03-21T00:42:18.288Z,30.33
2023-03-21T00:44:45.692Z,28.98
2023-03-21T00:47:13.460Z,29.15
2023-03-21T00:49:40.766Z,31.77
2023-03-21T00:52:18.351Z,31.25
2023-03-21T00:54:49.435Z,30.40
2023-03-21T00:57:16.907Z,31.73
2023-03-21T00:59:44.206Z,28.60
2023-03-21T01:02:15.308Z,30.48
2023-03-21T01:04:42.354Z,29.00
2023-03-21T01:07:09.498Z,31.65
2023-03-21T01:09:36.581Z,31.40
2023-03-21T01:12:03.909Z,31.52
2023-03-21T01:14:30.539Z,31.60
2023-03-21T01:16:57.721Z,30.73
2023-03-21T01:19:37.927Z,29.10
2023-03-21T01:22:08.024Z,29.90
2023-03-21T01:24:37.637Z,29.70
2023-03-21T01:27:05.240Z,30.23
2023-03-21T01:29:32.266Z,29.92
2023-03-21T01:31:59.224Z,30.80
2023-03-21T01:34:26.916Z,30.77
2023-03-21T01:36:55.028Z,30.83
2023-03-21T01:39:22.171Z,30.20
2023-03-21T01:41:49.760Z,33.00
2023-03-21T01:44:17.876Z,30.42
2023-03-21T01:47:00.445Z,29.48
2023-03-21T01:49:39.100Z,29.80
2023-03-21T01:52:13.123Z,28.00
2023-03-21T01:54:43.781Z,30.02
2023-03-21T01:57:17.089Z,30.33
2023-03-21T01:59:46.495Z,28.05
2023-03-21T02:02:18.346Z,28.38
2023-03-21T02:04:51.362Z,26.73
2023-03-21T02:07:19.733Z,28.63
2023-03-21T02:09:47.981Z,27.73
2023-03-21T02:12:16.741Z,27.30
2023-03-21T02:14:44.016Z,27.27
2023-03-21T02:17:13.812Z,26.85
2023-03-21T02:19:54.343Z,26.58
2023-03-21T02:22:36.303Z,25.63
2023-03-21T02:25:21.836Z,26.40
2023-03-21T02:27:57.614Z,26.95
2023-03-21T02:30:35.537Z,26.90
2023-03-21T02:33:18.095Z,25.80
2023-03-21T02:36:13.632Z,25.88
2023-03-21T02:38:47.695Z,27.10
2023-03-21T02:41:19.968Z,28.10
2023-03-21T02:43:53.148Z,26.50
2023-03-21T02:46:42.969Z,26.13
2023-03-21T02:49:16.098Z,26.25
2023-03-21T02:51:44.132Z,26.20
2023-03-21T02:54:30.243Z,26.85
2023-03-21T02:56:59.736Z,25.67
2023-03-21T02:59:28.492Z,25.48
2023-03-21T03:01:56.730Z,25.30
2023-03-21T03:04:25.338Z,25.20
2023-03-21T03:07:11.861Z,25.40
2023-03-21T03:09:44.311Z,25.13
2023-03-21T03:12:32.243Z,22.77
2023-03-21T03:15:14.218Z,22.80
2023-03-21T03:17:49.677Z,23.88
2023-03-21T03:20:44.739Z,24.10
2023-03-21T03:23:30.629Z,21.50
2023-03-21T03:26:00.603Z,22.98
2023-03-21T03:28:29.800Z,23.35
2023-03-21T03:31:08.655Z,23.73
2023-03-21T03:33:39.271Z,22.95
2023-03-21T03:36:09.364Z,24.13
2023-03-21T03:38:39.532Z,23.30
2023-03-21T03:41:13.234Z,23.17
2023-03-21T03:43:43.561Z,22.95
2023-03-21T03:46:13.593Z,23.25
2023-03-21T03:48:53.015Z,23.17
2023-03-21T03:51:28.462Z,23.05
2023-03-21T03:54:01.317Z,23.38
2023-03-21T03:56:28.832Z,23.40
2023-03-21T03:58:57.116Z,23.08
2023-03-21T04:01:24.291Z,23.60
2023-03-21T04:04:00.804Z,23.73
2023-03-21T04:06:33.944Z,24.73
2023-03-21T04:09:03.493Z,22.98
2023-03-21T04:11:32.494Z,22.20
2023-03-21T04:13:59.385Z,23.10
2023-03-21T04:16:26.426Z,22.83
2023-03-21T04:18:53.401Z,22.55
2023-03-21T04:21:20.072Z,22.95
2023-03-21T04:23:47.292Z,21.38
2023-03-21T04:26:14.652Z,21.98
2023-03-21T04:28:42.001Z,22.80
2023-03-21T04:31:24.123Z,21.55
2023-03-21T04:33:51.916Z,21.63
2023-03-21T04:36:30.982Z,21.75
2023-03-21T04:39:12.681Z,23.13
2023-03-21T04:41:45.139Z,22.00
2023-03-21T04:44:12.778Z,23.52
2023-03-21T04:46:40.487Z,23.80
2023-03-21T04:49:08.155Z,23.05
2023-03-21T04:51:35.836Z,22.30
2023-03-21T04:54:02.449Z,22.70
2023-03-21T04:56:34.274Z,21.52
2023-03-21T04:59:02.768Z,22.00
2023-03-21T05:01:32.330Z,23.27
2023-03-21T05:03:59.711Z,24.02
2023-03-21T05:06:28.231Z,24.25
2023-03-21T05:09:05.717Z,24.45
2023-03-21T05:11:36.272Z,24.85
2023-03-21T05:14:03.799Z,21.95
2023-03-21T05:16:31.008Z,22.30
2023-03-21T05:18:59.574Z,23.35
2023-03-21T05:21:29.895Z,22.70
2023-03-21T05:23:58.628Z,19.65
2023-03-21T05:26:25.710Z,21.65
2023-03-21T05:28:53.179Z,21.83
2023-03-21T05:31:21.021Z,23.00
2023-03-21T05:33:48.309Z,23.40
2023-03-21T05:36:16.034Z,20.40
2023-03-21T05:38:49.357Z,21.95
2023-03-21T05:41:19.188Z,20.30
2023-03-21T05:43:46.518Z,21.15
2023-03-21T05:46:13.550Z,21.90
2023-03-21T05:48:40.916Z,20.55
2023-03-21T05:51:08.064Z,21.02
2023-03-21T05:53:35.333Z,21.50
2023-03-21T05:56:06.588Z,27.40
2023-03-21T05:58:33.872Z,22.17
2023-03-21T06:01:01.235Z,22.38
2023-03-21T06:03:28.358Z,22.38
2023-03-21T06:05:55.555Z,20.73
2023-03-21T06:08:22.511Z,20.25
2023-03-21T06:10:48.969Z,18.67
2023-03-21T06:13:16.410Z,20.05
2023-03-21T06:15:43.794Z,19.73
2023-03-21T06:18:11.011Z,20.23
2023-03-21T06:20:38.421Z,19.85
2023-03-21T06:23:05.270Z,21.95
2023-03-21T06:25:32.496Z,22.30
2023-03-21T06:27:59.492Z,21.70
2023-03-21T06:30:26.608Z,21.45
2023-03-21T06:32:53.907Z,23.27
2023-03-21T06:35:20.566Z,22.45
2023-03-21T06:37:49.772Z,24.63
2023-03-21T06:40:17.530Z,22.05
2023-03-21T06:42:44.102Z,22.77
2023-03-21T06:45:12.620Z,22.70
2023-03-21T06:47:39.376Z,22.58
2023-03-21T06:50:07.419Z,24.83
2023-03-21T06:52:34.534Z,22.45
2023-03-21T06:55:01.102Z,23.02
2023-03-21T06:57:28.152Z,24.90
2023-03-21T06:59:55.062Z,23.63
2023-03-21T07:02:22.418Z,23.70
2023-03-21T07:04:49.736Z,24.13
2023-03-21T07:07:16.400Z,25.45
2023-03-21T07:09:43.650Z,24.08
2023-03-21T07:12:11.561Z,27.85
2023-03-21T07:14:38.631Z,28.25
2023-03-21T07:17:05.764Z,28.25
2023-03-21T07:19:32.219Z,27.17
2023-03-21T07:21:59.406Z,28.52
2023-03-21T07:24:28.106Z,28.25
2023-03-21T07:26:55.133Z,27.05
2023-03-21T07:29:23.587Z,28.13
2023-03-21T07:31:50.272Z,27.20
2023-03-21T07:34:18.357Z,25.40
2023-03-21T07:36:44.982Z,26.13
2023-03-21T07:39:12.062Z,25.05
2023-03-21T07:41:39.197Z,25.27
2023-03-21T07:46:34.017Z,25.25
2023-03-21T07:49:01.498Z,25.10
2023-03-21T07:51:28.498Z,24.90
2023-03-21T07:53:55.676Z,25.02
2023-03-21T07:56:22.434Z,22.60
2023-03-21T07:58:48.888Z,23.52
2023-03-21T08:01:16.313Z,23.50
2023-03-21T08:03:43.469Z,23.83
2023-03-21T08:06:10.338Z,23.27
2023-03-21T08:08:36.887Z,23.55
2023-03-21T08:11:04.164Z,21.98
2023-03-21T08:13:31.447Z,23.05
2023-03-21T08:15:58.292Z,19.90
2023-03-21T08:18:25.401Z,20.60
2023-03-21T08:20:53.704Z,18.80
2023-03-21T08:23:23.797Z,20.98
2023-03-21T08:25:54.035Z,19.27
2023-03-21T08:28:21.144Z,18.33
2023-03-21T08:30:48.794Z,18.92
2023-03-21T08:33:17.444Z,18.60
2023-03-21T08:35:45.326Z,18.60
2023-03-21T08:38:12.588Z,18.90
2023-03-21T08:40:39.866Z,18.35
2023-03-21T08:43:06.969Z,19.63
2023-03-21T08:45:33.442Z,21.20
2023-03-21T08:48:01.135Z,20.05
2023-03-21T08:50:29.637Z,19.33
2023-03-21T08:52:56.569Z,18.45
2023-03-21T08:55:24.672Z,19.17
2023-03-21T08:57:51.699Z,18.83
2023-03-21T09:00:20.717Z,20.88
2023-03-21T09:02:49.656Z,27.05
2023-03-21T09:05:17.069Z,20.98
2023-03-21T09:07:44.328Z,21.45
2023-03-21T09:10:20.980Z,20.08
2023-03-21T09:12:49.632Z,20.70
2023-03-21T09:15:18.506Z,20.50
2023-03-21T09:17:50.641Z,18.23
2023-03-21T09:20:21.016Z,19.50
2023-03-21T09:22:49.837Z,19.27
2023-03-21T09:25:17.213Z,17.67
2023-03-21T09:27:45.916Z,19.58
2023-03-21T09:30:19.596Z,17.80
2023-03-21T09:32:50.937Z,20.85
2023-03-21T09:35:19.517Z,19.02
2023-03-21T09:37:47.618Z,19.48
2023-03-21T09:40:24.127Z,19.15
2023-03-21T09:43:03.673Z,19.20
2023-03-21T09:45:30.259Z,20.80
2023-03-21T09:47:58.807Z,19.35
2023-03-21T09:50:27.848Z,19.98
2023-03-21T09:53:01.888Z,20.00
2023-03-21T09:55:35.303Z,20.38
2023-03-21T09:58:08.640Z,19.33
2023-03-21T10:00:37.810Z,19.58
2023-03-21T10:03:07.473Z,19.52
2023-03-21T10:05:35.934Z,18.65
2023-03-21T10:08:05.866Z,18.40
2023-03-21T10:10:47.444Z,19.92
2023-03-21T10:13:16.688Z,19.30
2023-03-21T10:15:43.207Z,19.88
2023-03-21T10:18:14.227Z,20.05
2023-03-21T10:20:43.528Z,20.92
2023-03-21T10:23:13.851Z,20.90
2023-03-21T10:25:42.129Z,20.30
2023-03-21T10:28:12.233Z,19.80
2023-03-21T10:30:40.603Z,19.50
2023-03-21T10:33:10.064Z,18.83
2023-03-21T10:35:38.956Z,19.13
2023-03-21T10:38:06.885Z,19.58
2023-03-21T10:40:34.988Z,17.58
2023-03-21T10:43:20.091Z,16.23
2023-03-21T10:45:48.397Z,18.08
2023-03-21T10:48:16.360Z,16.75
2023-03-21T10:50:46.863Z,17.42
2023-03-21T10:53:18.263Z,16.63
2023-03-21T10:55:47.130Z,18.20
2023-03-21T10:58:19.246Z,16.25
2023-03-21T11:00:46.614Z,16.25
2023-03-21T11:03:24.766Z,17.52
2023-03-21T11:05:57.648Z,16.92
2023-03-21T11:08:24.445Z,17.70
2023-03-21T11:10:57.953Z,17.70
2023-03-21T11:13:34.017Z,17.63
2023-03-21T11:16:20.064Z,15.40
2023-03-21T11:18:50.912Z,14.93
2023-03-21T11:21:17.861Z,14.57
2023-03-21T11:23:48.106Z,14.95
2023-03-21T11:26:24.447Z,15.63
2023-03-21T11:28:54.023Z,15.73
2023-03-21T11:31:22.080Z,14.93
2023-03-21T11:33:54.216Z,17.70
2023-03-21T11:36:23.446Z,16.15
2023-03-21T11:38:51.723Z,16.63
2023-03-21T11:41:24.703Z,18.23
2023-03-21T11:43:52.062Z,15.77
2023-03-21T11:46:23.865Z,15.40
2023-03-21T11:48:50.745Z,15.27
2023-03-21T11:51:33.721Z,15.07
2023-03-21T11:54:06.741Z,16.37
2023-03-21T11:56:36.659Z,15.75
2023-03-21T11:59:13.945Z,14.80
2023-03-21T12:01:41.320Z,17.17
2023-03-21T12:04:15.712Z,15.65
2023-03-21T12:06:46.122Z,17.40
2023-03-21T12:09:27.339Z,17.55
2023-03-21T12:12:11.972Z,15.23
2023-03-21T12:14:38.615Z,14.63
2023-03-21T12:17:18.916Z,15.00
2023-03-21T12:19:46.378Z,14.60
2023-03-21T12:22:31.846Z,14.48
2023-03-21T12:25:01.694Z,10.85
2023-03-21T12:27:42.703Z,8.82
2023-03-21T12:30:28.424Z,9.13
2023-03-21T12:33:04.639Z,10.05
2023-03-21T12:35:41.179Z,10.43
2023-03-21T12:38:18.126Z,11.30
2023-03-21T12:41:33.619Z,11.57
2023-03-21T12:44:06.272Z,11.18
2023-03-21T12:46:36.644Z,9.73
2023-03-21T12:49:08.029Z,10.35
2023-03-21T12:51:41.030Z,10.75
2023-03-21T12:54:13.589Z,11.18
2023-03-21T12:56:50.317Z,13.82
2023-03-21T12:59:26.590Z,11.70
2023-03-21T13:01:55.558Z,12.18
2023-03-21T13:04:22.021Z,12.45
2023-03-21T13:06:49.877Z,12.55
2023-03-21T13:09:23.424Z,14.75
2023-03-21T13:11:59.366Z,11.80
2023-03-21T13:14:28.309Z,14.02
2023-03-21T13:17:01.026Z,21.45
2023-03-21T13:19:39.009Z,17.35
2023-03-21T13:22:05.785Z,18.23
2023-03-21T13:24:32.148Z,10.80
2023-03-21T13:27:03.352Z,9.43
2023-03-21T13:29:32.879Z,12.82
2023-03-21T13:32:30.831Z,12.93
2023-03-21T13:34:58.890Z,12.90
2023-03-21T13:37:27.834Z,12.18
2023-03-21T13:39:59.926Z,15.18
2023-03-21T13:42:31.880Z,13.40
2023-03-21T13:45:01.157Z,13.63
2023-03-21T13:47:41.650Z,15.23
2023-03-21T13:50:17.219Z,14.10
2023-03-21T13:53:03.648Z,17.40
2023-03-21T13:55:42.176Z,14.70
2023-03-21T13:58:32.126Z,14.00
2023-03-21T14:01:18.124Z,19.63
2023-03-21T14:03:47.171Z,34.90
2023-03-21T14:06:15.278Z,17.42
2023-03-21T14:08:44.434Z,15.50
2023-03-21T14:11:15.775Z,16.88
2023-03-21T14:13:50.984Z,14.13
2023-03-21T14:16:18.807Z,13.60
2023-03-21T14:18:55.105Z,15.90
2023-03-21T14:21:24.653Z,17.73
2023-03-21T14:23:59.138Z,13.85
2023-03-21T14:26:28.042Z,13.15
2023-03-21T14:28:54.869Z,13.23
2023-03-21T14:31:21.586Z,13.10
2023-03-21T14:33:51.931Z,12.43
2023-03-21T14:36:21.374Z,12.82
2023-03-21T14:38:58.831Z,13.23
2023-03-21T14:41:27.465Z,11.88
2023-03-21T14:44:16.327Z,13.90
2023-03-21T14:46:43.676Z,11.57
2023-03-21T14:49:28.149Z,11.93
2023-03-21T14:51:55.917Z,11.55
2023-03-21T14:54:23.660Z,11.63
2023-03-21T14:56:52.562Z,11.82
2023-03-21T14:59:21.957Z,11.90
2023-03-21T15:01:50.486Z,11.38
2023-03-21T15:04:17.699Z,11.02
2023-03-21T15:07:10.122Z,11.20
2023-03-21T15:09:37.276Z,10.48
2023-03-21T15:12:08.254Z,11.38
2023-03-21T15:14:35.290Z,8.95
2023-03-21T15:17:04.124Z,9.98
2023-03-21T15:19:35.044Z,9.05
2023-03-21T15:22:20.685Z,9.70
2023-03-21T15:24:50.532Z,8.70
2023-03-21T15:27:19.384Z,9.23
2023-03-21T15:29:46.904Z,10.15
2023-03-21T15:32:18.177Z,11.55
2023-03-21T15:34:45.104Z,23.52
2023-03-21T15:37:21.707Z,27.33
2023-03-21T15:39:49.410Z,11.40
2023-03-21T15:42:34.374Z,9.93
2023-03-21T15:45:13.864Z,9.32
2023-03-21T15:47:52.289Z,8.18
2023-03-21T15:50:25.495Z,8.23
2023-03-21T15:52:52.884Z,8.38
2023-03-21T15:55:27.232Z,9.77
2023-03-21T15:57:56.220Z,9.35
2023-03-21T16:00:25.704Z,8.10
2023-03-21T16:02:54.949Z,7.25
2023-03-21T16:05:24.436Z,8.15
2023-03-21T16:07:51.269Z,7.13
2023-03-21T16:10:27.498Z,7.15
2023-03-21T16:12:54.722Z,6.82
2023-03-21T16:15:22.633Z,5.75
2023-03-21T16:17:55.301Z,6.07
2023-03-21T16:20:24.483Z,6.82
2023-03-21T16:22:52.670Z,6.25
2023-03-21T16:25:19.405Z,7.53
2023-03-21T16:27:47.976Z,6.95
2023-03-21T16:30:15.646Z,6.20
2023-03-21T16:32:42.702Z,6.10
2023-03-21T16:35:09.827Z,5.55
2023-03-21T16:37:36.382Z,5.88
2023-03-21T16:40:05.934Z,6.05
2023-03-21T16:42:32.433Z,6.95
2023-03-21T16:44:59.341Z,6.75
2023-03-21T16:47:26.015Z,13.35
2023-03-21T16:49:52.551Z,14.82
2023-03-21T16:52:19.598Z,19.42
2023-03-21T16:54:46.153Z,18.63
2023-03-21T16:57:22.226Z,17.73
2023-03-21T16:59:48.939Z,17.02
2023-03-21T17:02:19.286Z,15.70
2023-03-21T17:04:47.025Z,8.95
2023-03-21T17:07:14.992Z,7.68
2023-03-21T17:09:43.997Z,7.32
2023-03-21T17:12:14.415Z,8.35
2023-03-21T17:14:45.276Z,7.38
2023-03-21T17:17:13.510Z,19.17
2023-03-21T17:19:40.889Z,66.88
2023-03-21T17:22:07.511Z,69.20
2023-03-21T17:24:35.008Z,79.90
2023-03-21T17:27:02.572Z,73.38
2023-03-21T17:29:29.170Z,114.60
2023-03-21T17:31:55.697Z,178.02
2023-03-21T17:34:22.704Z,142.45
2023-03-21T17:36:50.101Z,131.35
2023-03-21T17:39:19.864Z,110.13
2023-03-21T17:41:46.979Z,74.80
2023-03-21T17:44:13.848Z,55.33
2023-03-21T17:46:41.089Z,35.30
2023-03-21T17:49:07.613Z,33.38
2023-03-21T17:51:34.838Z,39.75
2023-03-21T17:54:01.592Z,14.07
2023-03-21T17:56:33.084Z,19.90
2023-03-21T17:59:01.108Z,30.45
2023-03-21T18:01:27.872Z,70.15
2023-03-21T18:03:57.264Z,57.75
2023-03-21T18:06:25.944Z,45.72
2023-03-21T18:08:53.399Z,46.20
2023-03-21T18:11:21.530Z,50.35
2023-03-21T18:13:48.671Z,59.85
2023-03-21T18:16:17.596Z,46.65
2023-03-21T18:18:46.918Z,43.88
2023-03-21T18:21:19.647Z,41.28
2023-03-21T18:23:46.971Z,42.78
2023-03-21T18:26:17.470Z,35.00
2023-03-21T18:28:44.996Z,23.77
2023-03-21T18:31:19.253Z,19.65
2023-03-21T18:33:47.450Z,19.55
2023-03-21T18:36:15.950Z,26.50
2023-03-21T18:38:43.143Z,29.52
2023-03-21T18:41:09.667Z,35.13
2023-03-21T18:46:24.412Z,25.90
2023-03-21T18:48:51.806Z,26.73
2023-03-21T18:51:19.930Z,27.75
2023-03-21T18:53:48.074Z,37.13
2023-03-21T18:56:56.081Z,31.20
2023-03-21T18:59:01.534Z,24.00
2023-03-21T19:01:28.208Z,19.55
2023-03-21T19:04:20.379Z,20.63
2023-03-21T19:06:47.662Z,25.85
2023-03-21T19:09:14.928Z,41.00
2023-03-21T19:11:43.279Z,21.55
2023-03-21T19:14:12.076Z,21.70
2023-03-21T19:17:07.148Z,19.70
2023-03-21T19:19:27.034Z,55.20
2023-03-21T19:21:53.854Z,49.85
2023-03-21T19:24:27.680Z,59.63
2023-03-21T19:26:55.014Z,54.13
2023-03-21T19:29:22.858Z,45.08
2023-03-21T19:31:53.127Z,36.63
2023-03-21T19:34:21.227Z,35.83
2023-03-21T19:36:51.987Z,34.28
2023-03-21T19:39:22.853Z,26.15
2023-03-21T19:41:51.234Z,15.50
2023-03-21T19:44:19.932Z,15.18
2023-03-21T19:46:48.904Z,9.02
2023-03-21T19:49:22.104Z,7.97
2023-03-21T19:51:49.914Z,7.10
2023-03-21T19:54:20.035Z,5.15
2023-03-21T19:56:48.279Z,6.30
2023-03-21T19:59:15.327Z,5.13
2023-03-21T20:01:43.591Z,5.13
2023-03-21T20:04:11.137Z,6.13
2023-03-21T20:06:39.120Z,6.30
2023-03-21T20:09:49.689Z,8.07
2023-03-21T20:11:54.502Z,16.85
2023-03-21T20:14:22.026Z,11.98
2023-03-21T20:16:48.948Z,9.75
2023-03-21T20:19:16.325Z,6.53
2023-03-21T20:21:49.668Z,4.63
2023-03-21T20:24:21.723Z,5.82
2023-03-21T20:26:50.182Z,10.05
2023-03-21T20:30:07.103Z,13.30
2023-03-21T20:32:04.544Z,14.50
2023-03-21T20:34:31.249Z,14.45
2023-03-21T20:36:58.872Z,15.73
2023-03-21T20:39:28.563Z,15.00
2023-03-21T20:41:56.431Z,15.20
2023-03-21T20:47:12.008Z,12.95
2023-03-21T20:49:39.834Z,7.30
2023-03-21T20:54:54.258Z,21.00
2023-03-21T20:57:21.628Z,27.93
2023-03-21T20:59:48.245Z,34.20
2023-03-21T21:02:15.576Z,33.13
2023-03-21T21:05:11.775Z,38.50
2023-03-21T21:07:30.323Z,41.53
2023-03-21T21:09:57.913Z,35.33
2023-03-21T21:12:27.795Z,27.45
2023-03-21T21:14:55.750Z,23.55
2023-03-21T21:17:46.655Z,21.63
2023-03-21T21:20:21.234Z,22.27
2023-03-21T21:22:58.951Z,30.27
2023-03-21T21:25:26.761Z,34.37
2023-03-21T21:27:53.903Z,29.53
2023-03-21T21:30:20.677Z,24.87
2023-03-21T21:32:47.952Z,22.23
2023-03-21T21:35:14.651Z,26.37
2023-03-21T21:37:42.098Z,34.27
2023-03-21T21:40:15.757Z,28.17
2023-03-21T21:42:43.499Z,29.63
2023-03-21T21:45:11.742Z,29.80
2023-03-21T21:47:38.854Z,28.03
2023-03-21T21:50:06.992Z,25.60
2023-03-21T21:52:34.555Z,17.37
2023-03-21T21:55:02.292Z,17.67
2023-03-21T21:57:30.988Z,17.23
2023-03-21T21:59:57.447Z,14.60
2023-03-21T22:02:25.458Z,13.17
2023-03-21T22:04:56.904Z,11.27
2023-03-21T22:07:26.312Z,9.90
2023-03-21T22:09:52.753Z,10.47
2023-03-21T22:12:20.136Z,8.37
2023-03-21T22:14:47.370Z,7.03
2023-03-21T22:17:14.493Z,6.80
2023-03-21T22:19:42.599Z,6.90
2023-03-21T22:22:09.950Z,6.63
2023-03-21T22:24:38.293Z,6.90
2023-03-21T22:27:05.705Z,6.57
2023-03-21T22:29:33.469Z,6.47
2023-03-21T22:32:00.832Z,8.47
2023-03-21T22:34:28.370Z,7.67
2023-03-21T22:36:57.418Z,8.10
2023-03-21T22:39:26.853Z,8.83
2023-03-21T22:42:01.509Z,6.80
2023-03-21T22:44:35.102Z,7.37
2023-03-21T22:49:29.959Z,12.17
2023-03-21T22:51:57.628Z,15.97
2023-03-21T22:54:24.723Z,12.17
2023-03-21T22:56:51.936Z,13.00
2023-03-21T22:59:19.481Z,13.53
2023-03-21T23:01:46.033Z,14.53
2023-03-21T23:04:13.355Z,15.43
2023-03-21T23:06:39.986Z,14.30
2023-03-21T23:09:07.061Z,12.07
2023-03-21T23:11:34.503Z,9.53
2023-03-21T23:14:07.981Z,8.47
2023-03-21T23:16:38.635Z,11.23
2023-03-21T23:19:06.493Z,12.57
2023-03-21T23:21:36.190Z,13.33
2023-03-21T23:24:03.646Z,10.33
2023-03-21T23:26:31.534Z,10.30
2023-03-21T23:28:59.438Z,10.13
2023-03-21T23:31:27.658Z,9.67
2023-03-21T23:33:56.187Z,10.43
2023-03-21T23:36:23.723Z,9.60
2023-03-21T23:38:51.158Z,8.33
2023-03-21T23:41:19.791Z,12.30
2023-03-21T23:43:48.004Z,10.83
2023-03-21T23:46:16.409Z,10.90
2023-03-21T23:48:44.515Z,9.93
2023-03-21T23:51:12.700Z,10.07
2023-03-21T23:53:39.929Z,9.27
2023-03-21T23:56:11.398Z,10.80
2023-03-21T23:58:38.515Z,12.50
